Time;durP1;ratioP1;P1;durP2;ratioP2;P2;SDS_P1;SDS_P2;PMS_P1;PMS_P2;Temp;Humidity;BMP_temperature;BMP_pressure;BME280_temperature;BME280_humidity;BME280_pressure;Samples;Min_cycle;Max_cycle;Signal;HPM_P1;HPM_P2
2023/08/02 08:59:21;;;;;;;1.30;1.20;;;;;;;16.94;100.00;98937.22;5143848;27;20366;-74
2023/08/02 09:01:47;;;;;;;1.50;1.40;;;;;;;17.00;100.00;98935.16;5102287;28;20036;-72
2023/08/02 09:04:12;;;;;;;1.60;1.50;;;;;;;17.08;100.00;98926.16;5103537;28;20424;-72
2023/08/02 09:06:38;;;;;;;1.60;1.50;;;;;;;17.20;100.00;98919.31;5102237;28;20615;-72
2023/08/02 09:09:03;;;;;;;1.77;1.30;;;;;;;17.29;100.00;98925.59;5092131;28;20032;-72
2023/08/02 09:11:29;;;;;;;1.50;1.20;;;;;;;17.36;100.00;98920.47;5073280;28;20035;-71
2023/08/02 09:14:14;;;;;;;1.02;1.02;;;;;;;17.41;100.00;98905.84;5068318;28;20447;-73
2023/08/02 09:16:55;;;;;;;1.60;1.20;;;;;;;17.47;100.00;98908.13;5071045;28;20448;-81
2023/08/02 09:19:22;;;;;;;1.50;1.40;;;;;;;17.60;100.00;98909.09;5072953;28;20486;-73
2023/08/02 09:22:04;;;;;;;1.98;1.10;;;;;;;17.62;100.00;98903.31;5111335;27;20074;-73
2023/08/02 09:24:34;;;;;;;4.03;1.50;;;;;;;17.72;100.00;98892.06;5075641;28;20336;-73
2023/08/02 09:27:00;;;;;;;1.38;1.27;;;;;;;17.71;100.00;98882.25;5069574;28;20056;-71
2023/08/02 09:29:42;;;;;;;2.50;1.40;;;;;;;17.79;100.00;98889.66;5068054;28;20137;-72
2023/08/02 09:32:12;;;;;;;1.95;1.30;;;;;;;17.85;100.00;98882.09;5069455;28;20112;-73
2023/08/02 09:35:00;;;;;;;1.92;1.17;;;;;;;17.87;100.00;98883.41;5077366;28;20056;-73
2023/08/02 09:37:33;;;;;;;1.25;1.15;;;;;;;17.89;100.00;98878.44;5069422;28;20025;-73
2023/08/02 09:39:59;;;;;;;2.97;1.20;;;;;;;17.96;100.00;98877.13;5069263;28;20029;-73
2023/08/02 09:42:26;;;;;;;1.42;1.30;;;;;;;18.00;100.00;98878.09;5077594;28;20099;-72
2023/08/02 09:45:00;;;;;;;2.38;1.17;;;;;;;18.09;100.00;98865.22;5087987;28;20389;-72
2023/08/02 09:47:26;;;;;;;2.55;1.30;;;;;;;18.28;100.00;98861.31;5089104;28;20028;-72
2023/08/02 09:50:11;;;;;;;1.42;1.33;;;;;;;18.37;100.00;98860.19;5089142;28;20107;-72
2023/08/02 09:52:40;;;;;;;1.38;1.27;;;;;;;18.52;100.00;98864.31;5074630;28;20033;-73
2023/08/02 09:55:07;;;;;;;1.10;1.10;;;;;;;18.59;100.00;98855.59;5081115;28;20032;-74
2023/08/02 09:57:33;;;;;;;1.35;1.05;;;;;;;18.65;100.00;98845.28;5086826;28;20649;-76
2023/08/02 10:00:06;;;;;;;1.15;0.88;;;;;;;18.72;100.00;98851.03;5081584;28;20032;-74
2023/08/02 10:02:34;;;;;;;2.15;0.90;;;;;;;18.73;100.00;98852.66;5087896;27;20043;-76
2023/08/02 10:05:01;;;;;;;0.73;0.73;;;;;;;18.72;100.00;98856.50;5088437;28;20035;-78
2023/08/02 10:07:38;;;;;;;1.02;0.70;;;;;;;18.73;100.00;98855.38;5088574;28;20020;-79
2023/08/02 10:10:06;;;;;;;0.88;0.88;;;;;;;18.83;100.00;98851.50;5076184;28;20401;-78
2023/08/02 10:12:34;;;;;;;3.90;0.90;;;;;;;18.98;100.00;98858.38;5068211;28;20107;-75
2023/08/02 10:15:00;;;;;;;1.10;0.68;;;;;;;19.04;100.00;98857.06;5073505;28;20016;-75
2023/08/02 10:17:26;;;;;;;0.90;0.90;;;;;;;19.17;100.00;98836.03;5075002;28;20021;-75
2023/08/02 10:19:52;;;;;;;2.00;0.77;;;;;;;19.24;100.00;98820.66;5075041;28;20027;-80
2023/08/02 10:22:18;;;;;;;3.53;0.80;;;;;;;19.31;100.00;98814.66;5054396;28;20024;-78
2023/08/02 10:24:45;;;;;;;1.17;0.90;;;;;;;19.43;100.00;98816.63;5089766;28;20463;-75
2023/08/02 10:27:12;;;;;;;0.75;0.75;;;;;;;19.51;100.00;98812.25;5068080;28;20352;-80
2023/08/02 10:29:39;;;;;;;1.35;0.82;;;;;;;19.59;100.00;98809.41;5072498;28;20025;-79
2023/08/02 10:32:15;;;;;;;1.80;1.08;;;;;;;19.59;100.00;98809.41;5073830;28;20028;-78
2023/08/02 10:34:40;;;;;;;1.17;0.90;;;;;;;19.58;100.00;98802.34;5073442;28;20047;-80
2023/08/02 10:37:06;;;;;;;1.48;0.80;;;;;;;19.58;100.00;98799.59;5068206;28;20523;-73
2023/08/02 10:39:51;;;;;;;1.05;0.80;;;;;;;19.60;100.00;98794.56;5070537;28;20055;-72
2023/08/02 10:42:25;;;;;;;1.10;1.08;;;;;;;19.56;100.00;98785.41;5063148;28;20028;-76
2023/08/02 10:44:56;;;;;;;1.85;0.73;;;;;;;19.51;100.00;98785.63;5058792;28;20051;-74
2023/08/02 10:47:31;;;;;;;1.60;1.13;;;;;;;19.49;100.00;98793.38;5074488;28;20090;-76
2023/08/02 10:49:58;;;;;;;1.05;1.05;;;;;;;19.38;100.00;98787.47;5073839;28;20031;-81
2023/08/02 10:52:41;;;;;;;1.40;1.00;;;;;;;19.37;100.00;98790.56;5072919;28;20024;-74
2023/08/02 10:55:17;;;;;;;1.75;1.10;;;;;;;19.28;100.00;98802.41;5053930;28;20140;-74
2023/08/02 10:57:54;;;;;;;1.30;1.20;;;;;;;19.21;100.00;98776.66;5054205;28;20044;-73
2023/08/02 11:00:23;;;;;;;1.33;1.20;;;;;;;19.17;100.00;98764.75;5053812;28;20147;-73
2023/08/02 11:02:50;;;;;;;2.72;1.20;;;;;;;19.13;100.00;98751.69;5052017;28;20060;-74
2023/08/02 11:05:36;;;;;;;1.35;1.20;;;;;;;19.16;100.00;98758.47;5053629;28;20052;-72
2023/08/02 11:08:02;;;;;;;2.22;1.13;;;;;;;19.09;100.00;98752.69;5055241;28;20051;-73
2023/08/02 11:10:27;;;;;;;1.13;1.10;;;;;;;19.02;100.00;98766.13;5073423;28;20024;-73
2023/08/02 11:12:54;;;;;;;1.50;1.40;;;;;;;18.97;100.00;98767.13;5092743;28;20027;-73
2023/08/02 11:15:20;;;;;;;2.15;1.70;;;;;;;18.92;100.00;98759.91;5077714;28;20039;-73
2023/08/02 11:17:48;;;;;;;2.78;2.00;;;;;;;18.86;100.00;98771.41;5093309;28;20028;-73
2023/08/02 11:20:14;;;;;;;2.83;2.00;;;;;;;18.84;100.00;98766.22;5053779;28;20127;-71
2023/08/02 11:22:40;;;;;;;2.40;1.80;;;;;;;18.84;100.00;98768.13;5057572;28;20028;-73
2023/08/02 11:25:09;;;;;;;2.22;1.63;;;;;;;18.77;100.00;98790.59;5053642;28;20025;-72
2023/08/02 11:27:34;;;;;;;1.77;1.40;;;;;;;18.75;100.00;98774.47;5053553;28;20032;-72
2023/08/02 11:30:06;;;;;;;1.40;1.30;;;;;;;18.78;100.00;98778.47;5055787;28;20487;-72
2023/08/02 11:32:32;;;;;;;2.40;1.45;;;;;;;18.80;100.00;98781.72;5052724;28;20474;-73
2023/08/02 11:34:59;;;;;;;2.20;1.40;;;;;;;18.93;100.00;98764.25;5063307;28;20107;-73
2023/08/02 11:37:25;;;;;;;3.10;1.48;;;;;;;19.04;100.00;98766.63;5073727;28;20027;-73
2023/08/02 11:39:58;;;;;;;3.00;1.60;;;;;;;19.11;100.00;98761.38;5056941;28;20038;-72
2023/08/02 11:42:25;;;;;;;1.70;1.48;;;;;;;19.23;100.00;98758.72;5051635;28;20029;-74
2023/08/02 11:44:51;;;;;;;5.00;2.08;;;;;;;19.32;100.00;98750.41;5052743;28;20028;-74
2023/08/02 11:47:17;;;;;;;2.00;1.30;;;;;;;19.46;100.00;98744.66;5065043;28;20052;-78
2023/08/02 11:49:57;;;;;;;2.38;1.70;;;;;;;19.65;100.00;98755.94;5058499;28;20111;-76
2023/08/02 11:52:31;;;;;;;2.72;1.60;;;;;;;19.75;100.00;98751.19;5053614;28;20025;-72
2023/08/02 11:54:57;;;;;;;1.67;1.55;;;;;;;19.88;100.00;98752.84;5053508;28;20039;-72
2023/08/02 11:57:24;;;;;;;3.83;2.17;;;;;;;19.95;100.00;98761.34;5052081;28;20040;-73
2023/08/02 11:59:50;;;;;;;4.43;1.95;;;;;;;19.96;100.00;98762.94;5067936;28;20040;-73
2023/08/02 12:02:23;;;;;;;5.20;2.05;;;;;;;19.99;100.00;98756.78;5051910;28;20048;-73
2023/08/02 12:04:53;;;;;;;4.97;2.50;;;;;;;20.06;100.00;98771.91;5070278;28;20486;-76
2023/08/02 12:07:28;;;;;;;6.55;2.30;;;;;;;20.21;100.00;98763.00;5081749;28;20036;-70
2023/08/02 12:09:54;;;;;;;5.75;2.20;;;;;;;20.29;100.00;98751.13;5053426;28;20021;-72
2023/08/02 12:12:20;;;;;;;8.60;2.53;;;;;;;20.31;100.00;98746.09;5053562;28;20035;-73
2023/08/02 12:14:45;;;;;;;7.40;2.30;;;;;;;20.15;100.00;98759.66;5053230;28;20025;-73
2023/08/02 12:17:21;;;;;;;9.70;2.13;;;;;;;20.23;100.00;98746.19;5052879;28;20079;-72
2023/08/02 12:19:48;;;;;;;6.15;2.00;;;;;;;20.32;100.00;98752.38;5053081;28;20021;-71
2023/08/02 12:22:14;;;;;;;6.20;2.10;;;;;;;20.41;100.00;98750.34;5053694;28;20032;-72
2023/08/02 12:24:40;;;;;;;6.18;2.10;;;;;;;20.48;100.00;98744.25;5052779;28;20025;-71
2023/08/02 12:27:19;;;;;;;4.90;1.88;;;;;;;20.60;100.00;98752.50;5053309;28;20031;-71
2023/08/02 12:29:46;;;;;;;6.68;2.20;;;;;;;20.57;100.00;98769.69;5052690;28;20112;-71
2023/08/02 12:32:25;;;;;;;8.52;2.30;;;;;;;20.51;100.00;98765.56;5051152;28;20017;-72
2023/08/02 12:34:51;;;;;;;8.07;2.25;;;;;;;20.60;100.00;98758.00;5056756;28;20451;-75
2023/08/02 12:37:17;;;;;;;8.77;2.50;;;;;;;20.69;100.00;98761.47;5061044;28;20058;-73
2023/08/02 12:39:42;;;;;;;5.00;1.85;;;;;;;20.80;100.00;98761.00;5053083;28;20068;-74
2023/08/02 12:42:07;;;;;;;5.93;2.00;;;;;;;20.82;100.00;98764.19;5052818;28;20021;-72
2023/08/02 12:44:33;;;;;;;7.25;1.90;;;;;;;20.93;100.00;98759.84;5052205;28;20033;-74
2023/08/02 12:46:58;;;;;;;6.97;2.25;;;;;;;21.09;100.00;98759.13;5096630;28;20078;-72
2023/08/02 12:49:23;;;;;;;7.32;2.10;;;;;;;21.30;100.00;98776.28;5073257;28;20024;-74
2023/08/02 12:51:49;;;;;;;5.95;1.90;;;;;;;21.40;100.00;98753.00;5072502;28;20021;-73
2023/08/02 12:54:14;;;;;;;4.90;2.00;;;;;;;21.37;100.00;98743.47;5072735;28;20387;-72
2023/08/02 13:14:02;;;;;;;4.18;1.58;;;;;;;22.09;100.00;98756.50;5261458;23;20267;-76
2023/08/02 13:16:28;;;;;;;5.20;1.73;;;;;;;22.20;91.44;98758.72;5018836;28;20095;-76
2023/08/02 13:18:54;;;;;;;5.88;1.83;;;;;;;22.18;79.72;98758.25;5027748;28;20072;-79
2023/08/02 13:21:19;;;;;;;6.30;1.50;;;;;;;22.18;77.59;98761.00;5027889;28;20094;-75
2023/08/02 13:23:47;;;;;;;6.75;1.40;;;;;;;22.25;78.31;98762.03;5026840;28;20108;-77
2023/08/02 13:26:12;;;;;;;4.65;1.63;;;;;;;22.29;70.86;98764.84;5012464;28;20030;-81
2023/08/02 13:28:38;;;;;;;4.00;1.40;;;;;;;22.08;70.66;98774.16;5032123;28;20096;-78
2023/08/02 13:31:03;;;;;;;3.67;1.23;;;;;;;21.92;73.60;98776.06;5012419;28;20060;-80
2023/08/02 13:33:29;;;;;;;4.93;1.50;;;;;;;21.76;78.69;98779.59;5031369;28;20112;-79
2023/08/02 13:35:54;;;;;;;3.67;1.08;;;;;;;21.84;75.27;98777.84;5014187;28;20456;-76
2023/08/02 13:38:19;;;;;;;4.90;1.30;;;;;;;21.89;73.90;98772.09;5027519;28;20479;-79
2023/08/02 13:40:45;;;;;;;4.38;1.63;;;;;;;21.92;76.63;98776.06;5012660;28;20029;-78
2023/08/02 13:43:10;;;;;;;5.15;1.30;;;;;;;21.94;80.19;98780.09;5030973;28;20120;-79
2023/08/02 13:45:36;;;;;;;5.18;1.65;;;;;;;21.91;80.19;98786.31;5026001;28;20038;-85
2023/08/02 13:48:04;;;;;;;5.60;1.20;;;;;;;21.88;83.42;98780.72;5029626;28;20033;-77
2023/08/02 13:50:32;;;;;;;4.35;1.40;;;;;;;21.76;80.18;98774.09;5041722;28;20033;-80
2023/08/02 13:52:57;;;;;;;5.32;1.30;;;;;;;21.73;86.78;98782.25;5034327;28;20356;-82
2023/08/02 13:55:22;;;;;;;2.95;1.05;;;;;;;21.64;76.14;98779.66;5034551;28;20037;-81
2023/08/02 13:57:48;;;;;;;3.20;1.02;;;;;;;21.58;73.59;98790.09;5026060;28;20037;-80
2023/08/02 14:00:13;;;;;;;3.78;0.77;;;;;;;21.66;70.63;98758.06;5055744;28;20482;-77
2023/08/02 14:02:39;;;;;;;2.10;0.70;;;;;;;21.83;66.85;98778.19;5035210;28;20422;-77
2023/08/02 14:05:04;;;;;;;3.13;1.00;;;;;;;21.90;66.13;98781.16;5033635;28;20124;-77
2023/08/02 14:07:29;;;;;;;2.70;1.02;;;;;;;22.06;65.47;98772.94;5017017;28;20029;-73
2023/08/02 14:09:55;;;;;;;2.38;0.88;;;;;;;22.21;63.65;98765.81;5035938;28;20079;-78
2023/08/02 14:12:20;;;;;;;4.28;1.00;;;;;;;22.32;64.50;98775.19;5035508;28;20049;-79
2023/08/02 14:14:45;;;;;;;5.30;0.90;;;;;;;22.25;62.88;98769.47;5032816;28;20069;-81
2023/08/02 14:17:11;;;;;;;2.83;0.80;;;;;;;22.24;65.72;98768.69;5037626;28;20036;-80
2023/08/02 14:19:36;;;;;;;2.10;0.60;;;;;;;22.24;65.98;98773.41;5031138;28;20398;-81
2023/08/02 14:22:02;;;;;;;1.95;0.63;;;;;;;22.37;62.99;98771.38;5040971;28;20044;-80
2023/08/02 14:24:27;;;;;;;1.70;0.80;;;;;;;22.54;64.02;98768.28;5017706;28;20022;-79
2023/08/02 14:26:52;;;;;;;2.70;0.73;;;;;;;22.47;62.89;98765.34;5016732;28;20482;-78
2023/08/02 14:29:18;;;;;;;2.90;0.70;;;;;;;22.28;62.72;98766.81;5035368;28;20045;-77
2023/08/02 14:31:43;;;;;;;2.88;1.20;;;;;;;22.11;66.35;98770.69;5035201;28;20037;-81
2023/08/02 14:34:08;;;;;;;2.28;0.95;;;;;;;21.88;66.03;98786.22;5014173;28;20029;-81
2023/08/02 14:36:34;;;;;;;1.77;0.77;;;;;;;21.74;68.57;98784.66;5056100;28;20017;-80
2023/08/02 14:38:59;;;;;;;3.17;1.00;;;;;;;21.63;70.18;98777.25;5042269;28;20448;-78
2023/08/02 14:41:24;;;;;;;2.03;0.75;;;;;;;21.59;71.09;98796.44;5035533;28;20029;-82
2023/08/02 14:43:50;;;;;;;3.22;0.95;;;;;;;21.53;65.41;98789.53;5034338;28;20065;-77
2023/08/02 14:46:15;;;;;;;1.70;0.70;;;;;;;21.51;64.10;98784.38;5012636;28;20029;-79
2023/08/02 14:48:40;;;;;;;2.88;0.77;;;;;;;21.40;65.25;98797.00;5016192;28;20029;-74
2023/08/02 14:51:06;;;;;;;2.95;0.70;;;;;;;21.36;64.59;98791.41;5031580;28;20033;-74
2023/08/02 14:53:31;;;;;;;3.90;0.85;;;;;;;21.41;67.86;98791.16;5027222;28;20123;-73
2023/08/02 14:55:56;;;;;;;3.08;1.00;;;;;;;21.54;64.65;98791.97;5048915;28;20034;-74
2023/08/02 14:58:22;;;;;;;4.70;1.05;;;;;;;21.67;63.76;98798.22;5014491;28;20033;-75
2023/08/02 15:00:49;;;;;;;3.70;1.02;;;;;;;21.84;60.12;98796.31;5031212;28;20017;-75
2023/08/02 15:03:15;;;;;;;2.80;1.00;;;;;;;21.79;59.58;98805.63;5034357;28;20026;-75
2023/08/02 15:05:41;;;;;;;3.55;1.30;;;;;;;21.63;61.63;98813.81;5018421;28;20116;-75
2023/08/02 15:08:06;;;;;;;3.30;1.13;;;;;;;21.49;63.39;98816.94;5015757;28;20060;-75
2023/08/02 15:10:31;;;;;;;5.00;1.20;;;;;;;21.39;62.67;98823.72;5034042;28;20115;-74
2023/08/02 15:12:57;;;;;;;4.28;1.20;;;;;;;21.21;64.32;98833.38;5033965;28;20464;-75
2023/08/02 15:15:22;;;;;;;3.22;1.05;;;;;;;21.07;65.86;98852.97;5033429;28;20060;-75
2023/08/02 15:17:48;;;;;;;2.40;0.90;;;;;;;20.83;68.26;98884.00;5033804;28;20503;-75
2023/08/02 15:20:13;;;;;;;3.00;0.73;;;;;;;20.30;86.12;98857.06;5031911;28;20039;-77
2023/08/02 15:22:39;;;;;;;2.55;0.60;;;;;;;20.05;75.20;98858.97;5020138;28;20042;-81
2023/08/02 15:25:05;;;;;;;1.80;0.73;;;;;;;19.66;86.86;98850.84;5015435;28;20488;-76
2023/08/02 15:27:31;;;;;;;3.20;0.95;;;;;;;19.57;88.37;98850.09;5027388;28;20029;-76
2023/08/02 15:29:56;;;;;;;2.58;0.63;;;;;;;19.62;91.91;98843.63;5004581;28;20032;-75
2023/08/02 15:32:22;;;;;;;2.38;0.70;;;;;;;19.59;85.02;98845.09;5023978;28;20033;-75
2023/08/02 15:34:47;;;;;;;3.13;0.80;;;;;;;19.51;93.38;98840.47;5000332;28;20072;-75
2023/08/02 15:37:17;;;;;;;3.63;0.90;;;;;;;19.55;97.02;98851.56;4998896;28;20037;-76
2023/08/02 15:39:43;;;;;;;4.32;1.20;;;;;;;19.44;99.60;98854.72;5030936;28;20423;-76
2023/08/02 15:42:08;;;;;;;3.50;1.00;;;;;;;19.33;94.04;98842.53;5014453;28;20037;-75
2023/08/02 15:44:33;;;;;;;6.03;2.15;;;;;;;19.28;100.00;98843.53;5033219;28;20029;-75
2023/08/02 15:46:59;;;;;;;2.75;0.88;;;;;;;19.20;100.00;98855.34;5012243;28;20040;-75
2023/08/02 15:49:24;;;;;;;3.25;1.05;;;;;;;19.23;100.00;98857.41;5014229;28;20044;-74
2023/08/02 15:51:50;;;;;;;4.88;1.08;;;;;;;19.23;100.00;98859.38;5024777;28;20598;-76
2023/08/02 15:54:15;;;;;;;4.05;1.30;;;;;;;19.34;100.00;98851.56;5023094;28;20022;-76
2023/08/02 15:56:40;;;;;;;4.80;1.10;;;;;;;19.40;100.00;98859.28;5025885;28;20028;-75
2023/08/02 15:59:06;;;;;;;3.05;0.90;;;;;;;19.41;100.00;98851.84;5017660;28;20037;-74
2023/08/02 16:01:31;;;;;;;6.80;1.45;;;;;;;19.43;100.00;98846.81;4997114;28;20045;-76
2023/08/02 16:03:56;;;;;;;5.03;1.30;;;;;;;19.46;100.00;98854.38;5032719;28;20388;-82
2023/08/02 16:06:22;;;;;;;4.15;1.10;;;;;;;19.45;100.00;98858.28;5015526;28;20029;-77
2023/08/02 16:08:47;;;;;;;5.22;1.50;;;;;;;19.45;100.00;98839.88;5032671;28;20395;-78
2023/08/02 16:11:12;;;;;;;6.20;1.15;;;;;;;19.48;100.00;98854.84;5032097;28;20087;-79
2023/08/02 16:13:38;;;;;;;3.65;0.80;;;;;;;19.56;97.38;98859.47;5032176;28;20041;-78
